Time;durP1;ratioP1;P1;durP2;ratioP2;P2;SDS_P1;SDS_P2;PMS_P1;PMS_P2;Temp;Humidity;BMP_temperature;BMP_pressure;BME280_temperature;BME280_humidity;BME280_pressure;Samples;Min_cycle;Max_cycle;Signal;HPM_P1;HPM_P2
2021/10/10 00:00:59;;;;;;;18.92;6.83;;;9.10;85.90;;;;;;1891509;76;21530;-49
2021/10/10 00:03:28;;;;;;;19.70;8.38;;;9.10;86.00;;;;;;1891478;76;21116;-49
2021/10/10 00:05:57;;;;;;;16.07;7.45;;;9.10;86.00;;;;;;1891607;76;21030;-50
2021/10/10 00:08:27;;;;;;;14.30;7.00;;;9.10;86.00;;;;;;1891399;76;21030;-51
2021/10/10 00:10:57;;;;;;;19.27;8.53;;;9.10;86.10;;;;;;1891614;76;21097;-50
2021/10/10 00:13:26;;;;;;;22.10;9.18;;;9.10;86.10;;;;;;1891455;76;21062;-49
2021/10/10 00:15:56;;;;;;;21.62;8.25;;;9.10;86.20;;;;;;1891438;76;21034;-51
2021/10/10 00:18:26;;;;;;;24.12;10.20;;;9.20;86.20;;;;;;1891492;75;21077;-49
2021/10/10 00:20:55;;;;;;;20.17;9.58;;;9.10;86.20;;;;;;1891443;76;21139;-51
2021/10/10 00:23:24;;;;;;;17.37;9.58;;;9.20;86.30;;;;;;1891593;76;21069;-51
2021/10/10 00:25:53;;;;;;;18.77;8.85;;;9.20;86.20;;;;;;1891460;76;21002;-50
2021/10/10 00:28:23;;;;;;;20.15;9.08;;;9.10;86.10;;;;;;1891569;76;21092;-49
2021/10/10 00:30:55;;;;;;;18.15;8.65;;;9.10;86.10;;;;;;1891562;76;21006;-51
2021/10/10 00:33:23;;;;;;;22.22;9.13;;;9.10;86.20;;;;;;1891696;76;21515;-49
2021/10/10 00:35:53;;;;;;;13.65;8.68;;;9.10;86.10;;;;;;1891468;76;21030;-49
2021/10/10 00:38:22;;;;;;;13.58;7.65;;;9.00;85.90;;;;;;1891529;76;21006;-52
2021/10/10 00:40:52;;;;;;;18.37;7.35;;;9.00;86.10;;;;;;1891534;76;21173;-50
2021/10/10 00:43:21;;;;;;;13.70;7.40;;;9.00;86.10;;;;;;1891656;76;21007;-49
2021/10/10 00:45:52;;;;;;;11.22;6.70;;;8.90;86.10;;;;;;1891548;76;21053;-48
2021/10/10 00:48:21;;;;;;;15.00;6.95;;;8.90;86.40;;;;;;1891597;75;21135;-49
2021/10/10 00:50:51;;;;;;;15.88;7.03;;;8.90;86.50;;;;;;1891668;76;21034;-49
2021/10/10 00:53:21;;;;;;;13.90;6.58;;;8.90;86.50;;;;;;1891609;75;21046;-48
2021/10/10 00:55:52;;;;;;;12.80;6.17;;;8.90;86.20;;;;;;1891641;76;21038;-51
2021/10/10 00:58:25;;;;;;;12.05;6.58;;;8.90;86.10;;;;;;1891625;76;20998;-48
2021/10/10 01:00:55;;;;;;;17.95;7.35;;;8.80;86.00;;;;;;1891547;76;21096;-48
2021/10/10 01:03:25;;;;;;;13.15;6.85;;;8.80;86.00;;;;;;1891682;76;21030;-52
2021/10/10 01:05:54;;;;;;;20.23;6.45;;;8.70;86.20;;;;;;1891571;76;21014;-49
2021/10/10 01:08:24;;;;;;;13.13;6.62;;;8.70;86.10;;;;;;1891632;76;21092;-50
2021/10/10 01:10:53;;;;;;;11.55;6.50;;;8.70;86.10;;;;;;1875642;76;21109;-51
2021/10/10 01:13:23;;;;;;;12.15;5.80;;;8.60;86.30;;;;;;1872888;77;21081;-50
2021/10/10 01:15:53;;;;;;;19.82;7.97;;;8.70;86.50;;;;;;1872813;77;21015;-50
2021/10/10 01:18:23;;;;;;;16.77;7.45;;;8.70;86.50;;;;;;1872835;77;21035;-51
2021/10/10 01:20:54;;;;;;;22.27;8.38;;;8.70;86.60;;;;;;1872830;77;21027;-48
2021/10/10 01:23:25;;;;;;;23.87;9.60;;;8.70;86.70;;;;;;1872833;77;21003;-48
2021/10/10 01:25:54;;;;;;;20.85;8.55;;;8.80;86.70;;;;;;1872814;75;21031;-51
2021/10/10 01:28:23;;;;;;;18.73;8.80;;;8.70;86.40;;;;;;1872767;77;21031;-48
2021/10/10 01:30:53;;;;;;;18.23;8.40;;;8.70;86.50;;;;;;1872781;75;21035;-50
2021/10/10 01:33:22;;;;;;;17.60;8.20;;;8.70;86.60;;;;;;1872782;77;21102;-49
2021/10/10 01:35:52;;;;;;;17.50;8.65;;;8.70;86.60;;;;;;1872787;77;21023;-50
2021/10/10 01:38:21;;;;;;;14.15;8.50;;;8.80;86.80;;;;;;1872809;77;21031;-48
2021/10/10 01:40:50;;;;;;;15.68;8.10;;;8.80;86.70;;;;;;1872865;77;21034;-49
2021/10/10 01:43:20;;;;;;;20.10;7.87;;;8.80;86.50;;;;;;1872712;76;21007;-51
2021/10/10 01:45:49;;;;;;;15.95;7.50;;;8.70;86.60;;;;;;1872817;75;21027;-50
2021/10/10 01:48:18;;;;;;;15.18;7.70;;;8.70;86.80;;;;;;1872776;77;21007;-49
2021/10/10 01:50:50;;;;;;;17.45;8.35;;;8.80;87.00;;;;;;1872810;76;21071;-49
2021/10/10 01:53:19;;;;;;;15.63;7.75;;;8.70;86.80;;;;;;1872897;76;21117;-49
2021/10/10 01:55:49;;;;;;;12.63;6.80;;;8.80;86.80;;;;;;1872733;76;21027;-50
2021/10/10 01:58:18;;;;;;;10.23;6.58;;;8.80;86.70;;;;;;1872925;77;21030;-50
2021/10/10 02:00:48;;;;;;;17.57;6.83;;;8.80;86.80;;;;;;1872913;77;21070;-49
2021/10/10 02:03:17;;;;;;;13.10;6.97;;;8.80;86.80;;;;;;1872793;76;21132;-51
2021/10/10 02:05:47;;;;;;;24.32;9.70;;;8.80;86.90;;;;;;1872758;76;21027;-49
2021/10/10 02:08:16;;;;;;;20.23;9.40;;;8.80;87.10;;;;;;1872756;77;21027;-50
2021/10/10 02:10:46;;;;;;;27.52;8.25;;;8.80;86.80;;;;;;1883358;76;21101;-50
2021/10/10 02:13:15;;;;;;;11.12;6.80;;;8.80;87.00;;;;;;1891553;76;21046;-48
2021/10/10 02:15:45;;;;;;;16.12;7.87;;;8.80;87.00;;;;;;1891578;75;21069;-49
2021/10/10 02:18:15;;;;;;;16.97;7.85;;;8.80;86.80;;;;;;1891565;76;21088;-50
2021/10/10 02:20:44;;;;;;;17.20;6.60;;;8.80;86.80;;;;;;1891605;76;21027;-52
2021/10/10 02:23:15;;;;;;;14.98;7.05;;;8.80;86.90;;;;;;1891564;76;21570;-49
2021/10/10 02:25:45;;;;;;;13.35;5.65;;;8.80;87.00;;;;;;1891589;75;21026;-49
2021/10/10 02:28:16;;;;;;;9.15;5.10;;;8.80;87.00;;;;;;1891430;75;21066;-48
2021/10/10 02:30:49;;;;;;;12.95;6.20;;;8.80;87.00;;;;;;1891133;75;21187;-48
2021/10/10 02:33:18;;;;;;;9.33;5.72;;;8.70;86.80;;;;;;1891484;76;21050;-51
2021/10/10 02:35:47;;;;;;;10.75;5.60;;;8.70;86.80;;;;;;1891546;76;21081;-49
2021/10/10 02:38:17;;;;;;;8.48;5.42;;;8.60;87.00;;;;;;1891505;75;21092;-51
2021/10/10 02:40:46;;;;;;;12.23;6.22;;;8.60;87.30;;;;;;1891454;76;21006;-48
2021/10/10 02:43:15;;;;;;;10.28;5.67;;;8.70;87.50;;;;;;1891633;76;21034;-51
2021/10/10 02:45:45;;;;;;;15.40;6.20;;;8.70;87.50;;;;;;1891600;76;21096;-49
2021/10/10 02:48:14;;;;;;;13.28;5.55;;;8.70;87.50;;;;;;1891519;75;21034;-50
2021/10/10 02:50:44;;;;;;;13.55;7.17;;;8.80;87.50;;;;;;1891519;76;21024;-50
2021/10/10 02:53:13;;;;;;;9.40;5.78;;;8.80;87.30;;;;;;1891652;76;21043;-48
2021/10/10 02:55:42;;;;;;;8.20;5.80;;;8.80;87.40;;;;;;1891581;76;21515;-49
2021/10/10 02:58:12;;;;;;;13.48;5.90;;;8.80;87.20;;;;;;1891546;76;21108;-49
2021/10/10 03:00:41;;;;;;;12.45;7.10;;;8.80;87.30;;;;;;1891438;76;21022;-49
2021/10/10 03:03:11;;;;;;;14.03;7.08;;;8.90;87.40;;;;;;1891491;75;21050;-48
2021/10/10 03:05:40;;;;;;;14.55;6.78;;;8.90;87.40;;;;;;1891546;76;21100;-49
2021/10/10 03:08:09;;;;;;;22.13;7.22;;;8.90;87.30;;;;;;1891598;76;21021;-49
2021/10/10 03:10:39;;;;;;;14.90;7.37;;;8.80;86.70;;;;;;1886232;76;21054;-51
2021/10/10 03:13:09;;;;;;;11.50;7.05;;;8.80;87.00;;;;;;1872862;77;21039;-48
2021/10/10 03:15:41;;;;;;;17.15;7.47;;;8.80;87.00;;;;;;1872821;76;21038;-48
2021/10/10 03:18:11;;;;;;;11.28;6.45;;;8.80;87.00;;;;;;1872741;77;21007;-50
2021/10/10 03:20:40;;;;;;;14.47;6.80;;;8.70;86.90;;;;;;1872753;75;21039;-50
2021/10/10 03:23:09;;;;;;;12.93;5.92;;;8.70;87.10;;;;;;1872702;75;21011;-48
2021/10/10 03:25:39;;;;;;;18.70;7.30;;;8.70;87.20;;;;;;1872709;77;21027;-50
2021/10/10 03:28:09;;;;;;;11.48;7.12;;;8.70;86.80;;;;;;1872805;77;21494;-50
2021/10/10 03:30:38;;;;;;;16.05;7.12;;;8.60;86.90;;;;;;1872790;75;21008;-50
2021/10/10 03:33:08;;;;;;;11.20;6.37;;;8.60;87.10;;;;;;1872855;75;21144;-47
2021/10/10 03:35:38;;;;;;;9.15;6.15;;;8.60;87.10;;;;;;1872827;77;21082;-52
2021/10/10 03:38:07;;;;;;;7.25;6.35;;;8.60;87.00;;;;;;1872782;76;21097;-49
2021/10/10 03:40:36;;;;;;;8.98;6.42;;;8.60;87.20;;;;;;1872821;77;21039;-51
2021/10/10 03:43:05;;;;;;;13.55;6.78;;;8.60;87.00;;;;;;1872818;75;21034;-49
2021/10/10 03:45:34;;;;;;;13.90;7.10;;;8.50;87.10;;;;;;1872816;75;21027;-50
2021/10/10 03:48:04;;;;;;;14.07;7.28;;;8.50;87.30;;;;;;1872784;75;21003;-50
2021/10/10 03:50:34;;;;;;;13.95;6.90;;;8.50;87.40;;;;;;1872727;76;21035;-51
2021/10/10 03:53:03;;;;;;;10.65;6.55;;;8.50;87.50;;;;;;1872884;77;21031;-49
2021/10/10 03:58:03;;;;;;;14.47;7.40;;;8.60;87.50;;;;;;1872891;77;21486;-49
2021/10/10 04:00:34;;;;;;;11.65;6.53;;;8.60;87.60;;;;;;1872725;77;21140;-50
2021/10/10 04:03:05;;;;;;;14.78;6.58;;;8.60;87.80;;;;;;1872815;76;21109;-50
2021/10/10 04:08:06;;;;;;;13.83;6.62;;;8.70;87.70;;;;;;1872722;76;21532;-49
2021/10/10 04:10:36;;;;;;;12.05;6.03;;;8.70;87.70;;;;;;1872659;76;21176;-49
2021/10/10 04:13:08;;;;;;;11.33;6.30;;;8.80;87.70;;;;;;1872711;75;21097;-48
2021/10/10 04:15:38;;;;;;;13.40;6.45;;;8.80;87.70;;;;;;1872827;77;21077;-51
2021/10/10 04:18:09;;;;;;;12.93;6.12;;;8.80;87.50;;;;;;1872753;77;21047;-51
2021/10/10 04:20:38;;;;;;;14.50;6.45;;;8.80;87.60;;;;;;1872729;77;21144;-51
2021/10/10 04:23:07;;;;;;;12.88;6.67;;;8.90;88.00;;;;;;1872821;75;21027;-51
2021/10/10 04:25:36;;;;;;;9.85;5.42;;;8.90;87.60;;;;;;1872741;76;21031;-49
2021/10/10 04:28:06;;;;;;;11.22;6.78;;;8.90;87.60;;;;;;1872693;76;21007;-50
2021/10/10 04:30:36;;;;;;;10.70;5.97;;;8.90;87.60;;;;;;1872743;75;21035;-49
2021/10/10 04:33:05;;;;;;;12.78;6.95;;;8.90;87.50;;;;;;1872831;77;21092;-51
2021/10/10 04:35:34;;;;;;;11.80;6.45;;;8.90;87.50;;;;;;1872646;77;21176;-48
2021/10/10 04:38:04;;;;;;;15.28;5.75;;;8.90;87.50;;;;;;1872774;76;21771;-51
2021/10/10 04:40:33;;;;;;;15.70;6.33;;;8.90;87.30;;;;;;1872804;77;21035;-49
2021/10/10 04:43:03;;;;;;;17.85;6.12;;;8.90;87.40;;;;;;1872729;77;21034;-52
2021/10/10 04:45:32;;;;;;;11.05;5.33;;;8.90;87.50;;;;;;1872787;76;21469;-50
2021/10/10 04:48:02;;;;;;;14.13;5.53;;;8.90;87.10;;;;;;1872717;77;21093;-48
2021/10/10 04:50:31;;;;;;;12.30;5.47;;;8.90;87.10;;;;;;1872747;75;21031;-50
2021/10/10 04:53:00;;;;;;;14.43;4.95;;;8.90;87.00;;;;;;1872842;77;21031;-49
2021/10/10 04:55:30;;;;;;;9.05;5.78;;;8.90;87.20;;;;;;1872725;77;21050;-52
2021/10/10 04:58:01;;;;;;;201.98;112.22;;;9.00;87.20;;;;;;1872827;77;21039;-49
2021/10/10 05:00:30;;;;;;;133.32;70.10;;;9.00;87.30;;;;;;1872807;76;21031;-50
2021/10/10 05:02:59;;;;;;;59.15;28.10;;;9.00;87.30;;;;;;1872712;77;21110;-52
2021/10/10 05:05:29;;;;;;;18.87;6.10;;;9.10;87.20;;;;;;1872800;77;21055;-51
2021/10/10 05:07:59;;;;;;;17.62;5.08;;;9.10;87.20;;;;;;1872708;77;21156;-48
2021/10/10 05:10:28;;;;;;;10.90;4.90;;;9.10;86.20;;;;;;1872837;76;21188;-51
2021/10/10 05:12:57;;;;;;;16.57;5.55;;;9.10;86.20;;;;;;1872697;76;21070;-50
2021/10/10 05:15:27;;;;;;;11.25;6.33;;;9.10;86.30;;;;;;1872736;75;21047;-51
2021/10/10 05:17:56;;;;;;;15.63;6.92;;;9.10;86.60;;;;;;1872647;76;21030;-51
2021/10/10 05:20:26;;;;;;;20.27;6.28;;;9.10;86.60;;;;;;1872754;77;21434;-51
2021/10/10 05:22:55;;;;;;;11.25;5.67;;;9.10;86.60;;;;;;1872770;77;21082;-51
2021/10/10 05:25:25;;;;;;;20.20;6.15;;;9.10;86.30;;;;;;1872657;76;21031;-51
2021/10/10 05:27:54;;;;;;;9.83;5.80;;;9.10;86.50;;;;;;1872627;77;21093;-49
2021/10/10 05:30:24;;;;;;;16.20;6.22;;;9.10;86.60;;;;;;1872692;77;21019;-52
2021/10/10 05:32:53;;;;;;;11.00;6.05;;;9.20;86.60;;;;;;1872789;77;21031;-51
2021/10/10 05:35:22;;;;;;;12.93;5.53;;;9.20;86.20;;;;;;1872722;77;21027;-51
2021/10/10 05:37:52;;;;;;;10.90;5.25;;;9.20;86.20;;;;;;1872634;77;21062;-51
2021/10/10 05:40:21;;;;;;;14.68;6.85;;;9.20;86.30;;;;;;1872684;77;21093;-50
2021/10/10 05:42:51;;;;;;;17.05;7.72;;;9.20;86.40;;;;;;1872631;77;21030;-50
2021/10/10 05:45:20;;;;;;;14.70;6.50;;;9.30;86.30;;;;;;1872691;76;21019;-51
2021/10/10 05:47:50;;;;;;;13.85;6.92;;;9.30;86.00;;;;;;1872760;77;21114;-51
2021/10/10 05:50:19;;;;;;;14.65;6.28;;;9.20;86.10;;;;;;1872704;77;21106;-50
2021/10/10 05:52:50;;;;;;;19.62;6.30;;;9.30;86.20;;;;;;1872750;76;21074;-51
2021/10/10 05:55:23;;;;;;;7.55;4.95;;;9.20;86.10;;;;;;1872742;77;21039;-50
2021/10/10 05:57:51;;;;;;;11.33;5.42;;;9.20;86.00;;;;;;1872570;76;21497;-52
2021/10/10 06:00:21;;;;;;;10.90;6.20;;;9.20;86.30;;;;;;1872689;77;21089;-51
2021/10/10 06:02:51;;;;;;;13.25;7.97;;;9.20;86.50;;;;;;1872658;77;21102;-52
2021/10/10 06:05:20;;;;;;;17.87;5.80;;;9.30;86.30;;;;;;1872583;77;21034;-51
2021/10/10 06:07:49;;;;;;;10.38;5.50;;;9.30;86.10;;;;;;1872578;77;21085;-51
2021/10/10 06:10:19;;;;;;;8.58;5.25;;;9.30;86.10;;;;;;1872611;77;21110;-52
2021/10/10 06:12:48;;;;;;;14.70;6.25;;;9.30;86.00;;;;;;1872596;75;21106;-50
2021/10/10 06:15:19;;;;;;;13.38;6.50;;;9.40;86.00;;;;;;1872555;77;21071;-51
2021/10/10 06:17:48;;;;;;;17.07;5.97;;;9.40;86.10;;;;;;1872594;77;21031;-51
2021/10/10 06:20:17;;;;;;;10.20;5.90;;;9.50;85.90;;;;;;1872542;77;21003;-50
2021/10/10 06:22:47;;;;;;;10.50;5.53;;;9.50;85.60;;;;;;1872665;77;21163;-52
2021/10/10 06:25:17;;;;;;;16.97;7.50;;;9.60;85.70;;;;;;1872725;77;21101;-50
2021/10/10 06:27:46;;;;;;;21.12;7.67;;;9.60;85.60;;;;;;1872717;76;21085;-51
2021/10/10 06:30:15;;;;;;;16.57;8.80;;;9.70;85.30;;;;;;1872810;77;21031;-52
2021/10/10 06:32:45;;;;;;;16.70;10.23;;;9.80;85.20;;;;;;1872778;75;21109;-52
2021/10/10 06:35:15;;;;;;;19.20;7.45;;;9.80;85.20;;;;;;1872749;77;21011;-52
2021/10/10 06:37:44;;;;;;;19.32;6.53;;;9.90;85.20;;;;;;1872876;77;21035;-48
2021/10/10 06:40:14;;;;;;;17.40;8.73;;;9.90;85.10;;;;;;1872824;77;21003;-51
2021/10/10 06:42:43;;;;;;;15.00;6.05;;;10.00;85.10;;;;;;1872705;77;21126;-51
2021/10/10 06:45:13;;;;;;;11.05;6.65;;;10.10;84.70;;;;;;1872714;76;21109;-49
2021/10/10 06:47:43;;;;;;;12.53;6.40;;;10.10;84.50;;;;;;1872835;77;21036;-51
2021/10/10 06:50:12;;;;;;;14.83;5.25;;;10.20;84.50;;;;;;1872827;77;21031;-51
2021/10/10 06:52:41;;;;;;;9.40;4.90;;;10.20;84.00;;;;;;1872766;75;21007;-52
2021/10/10 06:55:11;;;;;;;12.60;5.35;;;10.30;83.90;;;;;;1872753;75;21035;-50
2021/10/10 06:57:40;;;;;;;21.02;6.17;;;10.30;83.90;;;;;;1872741;76;21007;-51
2021/10/10 07:00:10;;;;;;;14.20;6.15;;;10.40;83.70;;;;;;1872873;77;21040;-51
2021/10/10 07:02:42;;;;;;;11.20;4.50;;;10.40;83.60;;;;;;1872762;76;21035;-51
2021/10/10 07:05:13;;;;;;;11.18;4.60;;;10.40;83.20;;;;;;1872902;77;21109;-52
2021/10/10 07:07:42;;;;;;;8.90;4.33;;;10.40;83.50;;;;;;1872737;77;21034;-51
2021/10/10 07:10:12;;;;;;;10.88;4.83;;;10.50;82.90;;;;;;1872776;77;21081;-51
2021/10/10 07:12:41;;;;;;;12.82;4.70;;;10.50;83.30;;;;;;1872706;76;21192;-51
2021/10/10 07:15:14;;;;;;;10.35;4.60;;;10.60;83.50;;;;;;1872869;77;21023;-51
2021/10/10 07:17:44;;;;;;;9.25;4.75;;;10.60;83.30;;;;;;1872721;75;21085;-52
2021/10/10 07:20:19;;;;;;;6.47;4.85;;;10.70;83.20;;;;;;1872681;77;21101;-52
2021/10/10 07:22:46;;;;;;;8.80;5.22;;;10.80;82.90;;;;;;1872341;76;21023;-51
2021/10/10 07:25:16;;;;;;;8.88;5.05;;;10.80;82.50;;;;;;1872830;76;21043;-51
2021/10/10 07:27:47;;;;;;;11.05;5.37;;;10.80;83.40;;;;;;1872561;77;21003;-50
2021/10/10 07:30:16;;;;;;;12.37;6.37;;;10.90;82.90;;;;;;1872597;77;21023;-51
2021/10/10 07:32:46;;;;;;;10.88;5.78;;;10.90;82.90;;;;;;1872687;77;21003;-50
2021/10/10 07:35:15;;;;;;;13.10;6.30;;;11.00;83.00;;;;;;1872705;77;21003;-51
2021/10/10 07:37:45;;;;;;;9.50;5.37;;;11.10;83.00;;;;;;1872747;76;21023;-52
2021/10/10 07:40:14;;;;;;;11.73;6.42;;;11.10;82.20;;;;;;1872704;76;21011;-52
2021/10/10 07:42:44;;;;;;;11.28;7.55;;;11.20;82.00;;;;;;1872699;77;21031;-52
2021/10/10 07:45:18;;;;;;;14.73;8.10;;;11.20;81.90;;;;;;1872607;75;21042;-52
2021/10/10 07:47:49;;;;;;;11.12;7.67;;;11.20;81.90;;;;;;1872469;76;21063;-52
2021/10/10 07:50:20;;;;;;;11.85;7.45;;;11.20;82.00;;;;;;1872719;76;21051;-52
2021/10/10 07:52:50;;;;;;;13.05;6.70;;;11.20;81.30;;;;;;1872727;75;21054;-51
2021/10/10 07:55:19;;;;;;;18.80;8.18;;;11.20;81.60;;;;;;1872734;77;21135;-52
2021/10/10 07:57:49;;;;;;;11.68;5.97;;;11.20;81.70;;;;;;1872699;76;21123;-52
2021/10/10 08:00:18;;;;;;;11.30;7.10;;;11.30;81.90;;;;;;1872960;75;21030;-52
2021/10/10 08:02:55;;;;;;;12.73;7.08;;;11.30;82.00;;;;;;1872737;77;21038;-52
2021/10/10 08:05:26;;;;;;;13.72;7.45;;;11.40;82.00;;;;;;1872721;77;21097;-50
2021/10/10 08:07:56;;;;;;;10.23;7.78;;;11.50;82.00;;;;;;1872825;76;21122;-51
2021/10/10 08:10:25;;;;;;;9.40;5.70;;;11.50;81.90;;;;;;1872683;77;21036;-52
2021/10/10 08:12:55;;;;;;;11.05;6.42;;;11.60;81.50;;;;;;1872999;76;21039;-52
2021/10/10 08:15:24;;;;;;;13.90;6.90;;;11.70;81.40;;;;;;1891415;76;21022;-51
2021/10/10 08:17:54;;;;;;;10.20;6.67;;;11.70;81.30;;;;;;1891472;76;21027;-48
2021/10/10 08:20:24;;;;;;;10.80;7.00;;;11.70;81.60;;;;;;1891519;76;21054;-52
2021/10/10 08:22:53;;;;;;;15.80;6.40;;;11.80;81.30;;;;;;1891419;76;21038;-51
2021/10/10 08:25:23;;;;;;;12.03;7.12;;;11.80;81.50;;;;;;1891352;76;21030;-52
2021/10/10 08:27:52;;;;;;;21.77;9.28;;;11.90;81.40;;;;;;1891396;75;21108;-49
2021/10/10 08:30:22;;;;;;;15.30;7.95;;;11.90;81.50;;;;;;1891500;76;21079;-52
2021/10/10 08:32:51;;;;;;;15.85;8.80;;;12.00;81.30;;;;;;1891529;76;21073;-52
2021/10/10 08:35:20;;;;;;;12.63;7.28;;;12.00;81.20;;;;;;1891508;76;21034;-52
2021/10/10 08:37:50;;;;;;;13.95;6.97;;;12.10;81.40;;;;;;1891366;76;21155;-51
2021/10/10 08:40:19;;;;;;;15.38;7.83;;;12.10;81.10;;;;;;1891493;76;21099;-51
2021/10/10 08:42:52;;;;;;;14.05;8.10;;;12.20;81.20;;;;;;1891506;75;21038;-50
2021/10/10 08:45:29;;;;;;;12.47;7.05;;;12.20;81.20;;;;;;1891378;76;21088;-50
2021/10/10 08:47:56;;;;;;;23.65;8.10;;;12.30;81.00;;;;;;1891162;75;21102;-51
2021/10/10 08:50:27;;;;;;;11.22;7.17;;;12.30;81.10;;;;;;1891367;76;21090;-52
2021/10/10 08:52:59;;;;;;;14.25;7.47;;;12.40;80.50;;;;;;1891523;76;21492;-52
2021/10/10 08:55:35;;;;;;;14.95;7.72;;;12.40;80.70;;;;;;1891514;76;21092;-51
2021/10/10 08:58:03;;;;;;;12.35;6.60;;;12.50;80.70;;;;;;1890785;75;21089;-52
2021/10/10 09:00:34;;;;;;;12.78;6.37;;;12.60;80.30;;;;;;1891470;76;21002;-52
2021/10/10 09:03:06;;;;;;;10.72;6.80;;;12.60;80.00;;;;;;1891528;76;21046;-51
2021/10/10 09:05:35;;;;;;;15.45;7.00;;;12.60;80.20;;;;;;1889483;75;21037;-52
2021/10/10 09:08:05;;;;;;;14.47;6.97;;;12.70;79.70;;;;;;1891568;76;21006;-53
2021/10/10 09:10:34;;;;;;;13.78;6.60;;;12.80;79.90;;;;;;1891589;75;21046;-52
2021/10/10 09:13:15;;;;;;;12.47;6.67;;;12.80;79.80;;;;;;1891460;76;21030;-53
2021/10/10 09:15:51;;;;;;;12.63;6.35;;;12.80;79.50;;;;;;1891498;76;21127;-52
2021/10/10 09:18:20;;;;;;;8.90;6.00;;;12.90;79.50;;;;;;1891542;76;21135;-52
2021/10/10 09:20:49;;;;;;;18.02;6.37;;;12.90;79.00;;;;;;1891482;76;21066;-51
2021/10/10 09:23:21;;;;;;;13.28;6.90;;;13.00;79.40;;;;;;1891564;76;21026;-52
2021/10/10 09:25:55;;;;;;;16.70;6.53;;;13.00;79.30;;;;;;1891449;76;21121;-49
2021/10/10 09:28:27;;;;;;;16.50;6.78;;;13.00;79.20;;;;;;1891831;76;21096;-51
2021/10/10 09:30:59;;;;;;;11.05;5.78;;;13.10;79.50;;;;;;1891475;76;21034;-52
2021/10/10 09:33:41;;;;;;;9.00;6.08;;;13.20;79.40;;;;;;1891504;76;21045;-51
2021/10/10 09:36:21;;;;;;;11.40;6.25;;;13.30;79.40;;;;;;1891647;75;21119;-49
2021/10/10 09:38:56;;;;;;;18.80;6.58;;;13.30;79.00;;;;;;1890627;75;21133;-50
2021/10/10 09:41:27;;;;;;;9.48;6.37;;;13.30;78.80;;;;;;1890563;75;21109;-51
2021/10/10 09:44:08;;;;;;;12.60;6.30;;;13.40;79.00;;;;;;1890239;75;21085;-51
2021/10/10 09:46:37;;;;;;;14.15;5.75;;;13.50;78.70;;;;;;1891415;75;21058;-51
2021/10/10 09:49:25;;;;;;;9.50;5.70;;;13.50;78.60;;;;;;1891549;75;21042;-51
2021/10/10 09:51:56;;;;;;;11.45;5.70;;;13.60;78.60;;;;;;1891363;76;21018;-51
2021/10/10 09:54:25;;;;;;;11.48;6.10;;;13.70;78.70;;;;;;1891394;76;21034;-52
2021/10/10 09:57:06;;;;;;;10.38;6.03;;;13.70;78.10;;;;;;1891461;76;21453;-50
2021/10/10 09:59:36;;;;;;;12.03;6.12;;;13.80;78.40;;;;;;1891533;76;21103;-50
2021/10/10 10:02:05;;;;;;;11.70;6.60;;;13.80;78.00;;;;;;1891390;76;21002;-51
2021/10/10 10:04:51;;;;;;;8.43;5.22;;;13.90;77.90;;;;;;1891391;76;21030;-52
2021/10/10 10:07:22;;;;;;;11.35;6.00;;;13.90;77.70;;;;;;1891627;76;21069;-52
2021/10/10 10:09:52;;;;;;;13.25;6.03;;;13.90;78.10;;;;;;1891491;75;21046;-50
2021/10/10 10:12:23;;;;;;;12.75;5.37;;;13.90;77.90;;;;;;1891521;76;21174;-51
2021/10/10 10:14:56;;;;;;;22.40;7.35;;;14.00;77.90;;;;;;1885541;75;21078;-52
2021/10/10 10:17:26;;;;;;;17.37;8.88;;;14.10;77.70;;;;;;1872747;76;21007;-51
2021/10/10 10:19:58;;;;;;;13.15;6.70;;;14.10;78.00;;;;;;1872823;77;21101;-52
2021/10/10 10:22:29;;;;;;;10.15;6.33;;;14.20;78.00;;;;;;1872537;76;21058;-49
2021/10/10 10:24:59;;;;;;;10.70;6.97;;;14.20;77.80;;;;;;1872988;76;20999;-50
2021/10/10 10:27:29;;;;;;;14.98;6.67;;;14.30;77.90;;;;;;1872782;75;21058;-52
2021/10/10 10:29:59;;;;;;;14.80;7.17;;;14.30;77.70;;;;;;1872713;77;21007;-49
2021/10/10 10:32:30;;;;;;;15.55;7.25;;;14.30;77.60;;;;;;1872707;76;21035;-52
2021/10/10 10:35:02;;;;;;;10.13;6.45;;;14.40;77.40;;;;;;1872690;77;21003;-51
2021/10/10 10:37:46;;;;;;;10.18;6.80;;;14.40;77.60;;;;;;1872868;75;21027;-52
2021/10/10 10:40:27;;;;;;;13.62;6.60;;;14.50;77.80;;;;;;1872857;77;21452;-52
2021/10/10 10:43:00;;;;;;;12.73;6.17;;;14.60;77.50;;;;;;1872791;76;21043;-50
2021/10/10 10:45:35;;;;;;;10.78;6.42;;;14.60;77.40;;;;;;1872824;77;21031;-52
2021/10/10 10:48:07;;;;;;;13.62;6.60;;;14.70;77.30;;;;;;1872997;77;20991;-51
2021/10/10 10:50:44;;;;;;;10.50;5.80;;;14.70;76.90;;;;;;1872806;76;21081;-52
2021/10/10 10:53:11;;;;;;;10.43;6.53;;;14.70;76.70;;;;;;1871550;76;21035;-52
2021/10/10 10:55:45;;;;;;;10.70;6.67;;;14.80;76.80;;;;;;1872763;76;21027;-51
2021/10/10 10:58:16;;;;;;;12.43;7.63;;;14.80;77.00;;;;;;1873167;75;21027;-52
2021/10/10 11:00:49;;;;;;;9.78;5.40;;;14.80;77.00;;;;;;1872875;77;21714;-52
2021/10/10 11:03:28;;;;;;;10.38;6.45;;;14.80;76.70;;;;;;1872885;75;21031;-52
2021/10/10 11:06:09;;;;;;;10.90;6.58;;;14.80;76.90;;;;;;1872950;77;21031;-51
2021/10/10 11:08:41;;;;;;;14.43;7.53;;;14.90;77.00;;;;;;1872810;77;21101;-51
2021/10/10 11:11:24;;;;;;;13.05;6.95;;;15.00;76.90;;;;;;1871840;76;21523;-52
2021/10/10 11:13:59;;;;;;;7.58;6.10;;;15.00;77.00;;;;;;1872779;77;21027;-52
2021/10/10 11:16:31;;;;;;;10.53;6.10;;;15.00;77.10;;;;;;1872924;76;21497;-52
2021/10/10 11:19:03;;;;;;;8.08;6.15;;;15.10;76.90;;;;;;1872800;77;21081;-52
2021/10/10 11:21:44;;;;;;;22.17;6.87;;;15.20;76.60;;;;;;1870213;76;21176;-51
2021/10/10 11:24:23;;;;;;;11.95;7.17;;;15.20;76.60;;;;;;1872774;77;21019;-52
2021/10/10 11:26:50;;;;;;;13.38;5.62;;;15.20;76.30;;;;;;1872501;76;21059;-52
2021/10/10 11:29:27;;;;;;;10.93;5.15;;;15.30;76.50;;;;;;1872902;77;21054;-52
2021/10/10 11:31:53;;;;;;;8.48;5.60;;;15.30;76.50;;;;;;1872445;76;21043;-50
2021/10/10 11:34:24;;;;;;;9.08;5.12;;;15.30;76.30;;;;;;1872884;77;21066;-51
2021/10/10 11:36:55;;;;;;;8.55;5.62;;;15.40;75.90;;;;;;1872701;76;21003;-51
2021/10/10 11:39:36;;;;;;;16.97;6.05;;;15.40;75.60;;;;;;1872769;77;21132;-52
2021/10/10 11:42:08;;;;;;;12.60;5.92;;;15.40;75.70;;;;;;1872686;76;21023;-50
2021/10/10 11:44:42;;;;;;;17.48;6.70;;;15.40;75.80;;;;;;1872609;77;21031;-50
2021/10/10 11:47:26;;;;;;;11.20;5.37;;;15.50;75.70;;;;;;1872823;75;21100;-52
2021/10/10 11:49:59;;;;;;;13.55;5.95;;;15.50;76.20;;;;;;1872629;77;21035;-51
2021/10/10 11:52:36;;;;;;;11.40;5.00;;;15.50;75.70;;;;;;1872652;76;20996;-51
2021/10/10 11:55:22;;;;;;;8.25;5.53;;;15.60;75.20;;;;;;1872825;76;21055;-49
2021/10/10 11:57:45;;;;;;;13.32;5.15;;;15.60;75.10;;;;;;1872295;75;21051;-51
2021/10/10 12:00:19;;;;;;;10.95;5.10;;;15.70;75.50;;;;;;1872822;76;21474;-51
2021/10/10 12:02:49;;;;;;;8.03;5.10;;;15.70;74.80;;;;;;1873056;76;20999;-51
2021/10/10 12:05:20;;;;;;;12.30;5.15;;;15.70;75.10;;;;;;1872828;75;21098;-52
2021/10/10 12:07:53;;;;;;;11.35;4.78;;;15.70;75.10;;;;;;1872791;77;21220;-51
2021/10/10 12:10:24;;;;;;;12.35;5.90;;;15.70;75.10;;;;;;1872775;77;21510;-52
2021/10/10 12:12:53;;;;;;;10.28;6.05;;;15.70;75.00;;;;;;1872756;76;21043;-53
2021/10/10 12:15:23;;;;;;;11.45;6.00;;;15.80;74.90;;;;;;1873742;76;21035;-52
2021/10/10 12:17:57;;;;;;;11.25;6.10;;;15.80;74.80;;;;;;1891481;76;21088;-52
2021/10/10 12:20:27;;;;;;;13.18;7.33;;;15.80;74.80;;;;;;1891301;75;21058;-53
2021/10/10 12:22:59;;;;;;;12.68;6.62;;;15.80;74.60;;;;;;1891449;76;20998;-52
2021/10/10 12:25:39;;;;;;;12.47;7.22;;;15.90;74.70;;;;;;1891391;76;21038;-51
2021/10/10 12:28:16;;;;;;;11.70;6.85;;;15.90;74.80;;;;;;1891404;75;21030;-52
2021/10/10 12:31:00;;;;;;;12.05;7.65;;;15.90;74.80;;;;;;1891428;76;21062;-51
2021/10/10 12:33:31;;;;;;;9.95;6.15;;;15.90;74.80;;;;;;1891491;76;21083;-52
2021/10/10 12:36:11;;;;;;;11.53;6.85;;;16.00;74.80;;;;;;1891497;76;21034;-51
2021/10/10 12:38:52;;;;;;;9.25;5.83;;;16.00;74.80;;;;;;1890243;75;21155;-51
2021/10/10 12:41:26;;;;;;;11.95;5.60;;;16.00;74.70;;;;;;1891539;76;21096;-52
2021/10/10 12:44:04;;;;;;;9.25;5.65;;;16.00;74.60;;;;;;1891866;76;21056;-51
2021/10/10 12:46:52;;;;;;;12.05;6.08;;;16.00;74.70;;;;;;1891509;76;21107;-53
2021/10/10 12:49:37;;;;;;;8.13;5.97;;;15.90;74.70;;;;;;1850226;77;21078;-52
2021/10/10 12:52:12;;;;;;;9.63;5.40;;;16.00;74.70;;;;;;1883647;75;21163;-50
2021/10/10 12:54:45;;;;;;;9.45;5.78;;;15.90;74.70;;;;;;1891540;76;21065;-53
2021/10/10 12:57:17;;;;;;;13.43;6.30;;;15.90;74.90;;;;;;1891428;76;21046;-52
2021/10/10 12:59:54;;;;;;;9.28;5.60;;;16.00;74.90;;;;;;1891444;76;21092;-53
2021/10/10 13:02:24;;;;;;;14.95;7.85;;;16.00;75.10;;;;;;1891512;76;21058;-51
2021/10/10 13:04:53;;;;;;;11.08;6.42;;;16.00;75.10;;;;;;1891397;76;21003;-51
2021/10/10 13:07:23;;;;;;;9.65;6.80;;;16.00;75.30;;;;;;1891377;76;21199;-52